sensor_id;sensor_type;location;lat;lon;timestamp;P1;durP1;ratioP1;P2;durP2;ratioP2
75139;SDS011;63714;55.812;37.658;2023-05-13T00:01:31;11.07;;;5.15;;
75139;SDS011;63714;55.812;37.658;2023-05-13T00:04:03;10.90;;;5.15;;
75139;SDS011;63714;55.812;37.658;2023-05-13T00:06:31;13.00;;;5.03;;
75139;SDS011;63714;55.812;37.658;2023-05-13T00:08:57;8.18;;;4.72;;
75139;SDS011;63714;55.812;37.658;2023-05-13T00:11:23;13.75;;;4.63;;
75139;SDS011;63714;55.812;37.658;2023-05-13T00:13:49;8.90;;;5.13;;
75139;SDS011;63714;55.812;37.658;2023-05-13T00:16:15;7.93;;;4.95;;
75139;SDS011;63714;55.812;37.658;2023-05-13T00:18:41;10.77;;;4.80;;
75139;SDS011;63714;55.812;37.658;2023-05-13T00:21:06;9.00;;;4.70;;
75139;SDS011;63714;55.812;37.658;2023-05-13T00:23:32;11.27;;;4.15;;
75139;SDS011;63714;55.812;37.658;2023-05-13T00:25:59;12.13;;;4.30;;
75139;SDS011;63714;55.812;37.658;2023-05-13T00:28:25;11.98;;;4.63;;
75139;SDS011;63714;55.812;37.658;2023-05-13T00:30:51;8.27;;;4.35;;
75139;SDS011;63714;55.812;37.658;2023-05-13T00:33:17;12.23;;;4.82;;
75139;SDS011;63714;55.812;37.658;2023-05-13T00:35:45;10.05;;;4.68;;
75139;SDS011;63714;55.812;37.658;2023-05-13T00:38:11;9.70;;;4.10;;
75139;SDS011;63714;55.812;37.658;2023-05-13T00:40:37;11.27;;;4.45;;
75139;SDS011;63714;55.812;37.658;2023-05-13T00:43:07;8.75;;;4.03;;
75139;SDS011;63714;55.812;37.658;2023-05-13T00:45:35;10.60;;;4.60;;
75139;SDS011;63714;55.812;37.658;2023-05-13T00:48:01;9.35;;;4.28;;
75139;SDS011;63714;55.812;37.658;2023-05-13T00:50:31;11.23;;;4.13;;
75139;SDS011;63714;55.812;37.658;2023-05-13T00:52:57;10.90;;;4.55;;
75139;SDS011;63714;55.812;37.658;2023-05-13T00:55:24;9.98;;;4.53;;
75139;SDS011;63714;55.812;37.658;2023-05-13T00:57:50;9.05;;;4.30;;
75139;SDS011;63714;55.812;37.658;2023-05-13T01:00:16;10.32;;;4.53;;
75139;SDS011;63714;55.812;37.658;2023-05-13T01:10:56;14.05;;;4.50;;
75139;SDS011;63714;55.812;37.658;2023-05-13T01:13:27;13.80;;;5.03;;
75139;SDS011;63714;55.812;37.658;2023-05-13T01:16:02;6.93;;;4.15;;
75139;SDS011;63714;55.812;37.658;2023-05-13T01:18:39;8.63;;;4.03;;
75139;SDS011;63714;55.812;37.658;2023-05-13T01:21:08;8.20;;;4.43;;
75139;SDS011;63714;55.812;37.658;2023-05-13T01:23:35;7.22;;;4.38;;
75139;SDS011;63714;55.812;37.658;2023-05-13T01:26:01;12.57;;;4.50;;
75139;SDS011;63714;55.812;37.658;2023-05-13T01:28:27;7.93;;;4.00;;
75139;SDS011;63714;55.812;37.658;2023-05-13T01:30:53;9.18;;;3.92;;
75139;SDS011;63714;55.812;37.658;2023-05-13T01:33:21;10.50;;;4.00;;
75139;SDS011;63714;55.812;37.658;2023-05-13T01:35:48;9.52;;;4.30;;
75139;SDS011;63714;55.812;37.658;2023-05-13T01:38:16;8.27;;;4.25;;
75139;SDS011;63714;55.812;37.658;2023-05-13T01:40:44;7.00;;;4.28;;
75139;SDS011;63714;55.812;37.658;2023-05-13T01:43:10;10.23;;;4.63;;
75139;SDS011;63714;55.812;37.658;2023-05-13T01:45:36;8.98;;;3.92;;
75139;SDS011;63714;55.812;37.658;2023-05-13T01:48:02;9.70;;;4.28;;
75139;SDS011;63714;55.812;37.658;2023-05-13T01:50:27;7.85;;;4.05;;
75139;SDS011;63714;55.812;37.658;2023-05-13T01:52:53;9.10;;;4.40;;
75139;SDS011;63714;55.812;37.658;2023-05-13T01:55:19;7.65;;;3.97;;
75139;SDS011;63714;55.812;37.658;2023-05-13T01:57:44;5.55;;;3.88;;
75139;SDS011;63714;55.812;37.658;2023-05-13T02:00:10;5.72;;;4.22;;
75139;SDS011;63714;55.812;37.658;2023-05-13T02:02:36;8.25;;;3.78;;
75139;SDS011;63714;55.812;37.658;2023-05-13T02:05:02;6.75;;;4.10;;
75139;SDS011;63714;55.812;37.658;2023-05-13T02:07:28;6.35;;;3.85;;
75139;SDS011;63714;55.812;37.658;2023-05-13T02:09:55;8.48;;;3.90;;
75139;SDS011;63714;55.812;37.658;2023-05-13T02:12:27;7.90;;;3.50;;
75139;SDS011;63714;55.812;37.658;2023-05-13T02:14:53;6.65;;;3.72;;
75139;SDS011;63714;55.812;37.658;2023-05-13T02:17:19;5.80;;;3.78;;
75139;SDS011;63714;55.812;37.658;2023-05-13T02:19:45;7.25;;;3.65;;
75139;SDS011;63714;55.812;37.658;2023-05-13T02:22:10;8.80;;;3.63;;
75139;SDS011;63714;55.812;37.658;2023-05-13T02:24:36;7.70;;;3.67;;
75139;SDS011;63714;55.812;37.658;2023-05-13T02:27:04;8.68;;;3.15;;
75139;SDS011;63714;55.812;37.658;2023-05-13T02:29:32;8.63;;;3.38;;
75139;SDS011;63714;55.812;37.658;2023-05-13T02:31:59;5.03;;;3.05;;
75139;SDS011;63714;55.812;37.658;2023-05-13T02:34:24;5.47;;;2.88;;
75139;SDS011;63714;55.812;37.658;2023-05-13T02:36:50;7.13;;;3.47;;
75139;SDS011;63714;55.812;37.658;2023-05-13T02:39:16;6.55;;;3.20;;
75139;SDS011;63714;55.812;37.658;2023-05-13T02:41:42;7.85;;;3.17;;
75139;SDS011;63714;55.812;37.658;2023-05-13T02:44:09;6.63;;;3.22;;
75139;SDS011;63714;55.812;37.658;2023-05-13T02:46:35;7.13;;;3.50;;
75139;SDS011;63714;55.812;37.658;2023-05-13T02:49:01;8.73;;;3.10;;
75139;SDS011;63714;55.812;37.658;2023-05-13T02:51:27;7.03;;;2.70;;
75139;SDS011;63714;55.812;37.658;2023-05-13T02:53:53;7.32;;;2.90;;
75139;SDS011;63714;55.812;37.658;2023-05-13T02:56:18;9.13;;;3.20;;
75139;SDS011;63714;55.812;37.658;2023-05-13T02:58:45;6.95;;;3.10;;
75139;SDS011;63714;55.812;37.658;2023-05-13T03:01:11;6.93;;;2.58;;
75139;SDS011;63714;55.812;37.658;2023-05-13T03:03:37;6.05;;;3.08;;
75139;SDS011;63714;55.812;37.658;2023-05-13T03:06:03;5.10;;;2.70;;
75139;SDS011;63714;55.812;37.658;2023-05-13T03:08:29;3.97;;;2.40;;
75139;SDS011;63714;55.812;37.658;2023-05-13T03:10:56;9.63;;;3.10;;
75139;SDS011;63714;55.812;37.658;2023-05-13T03:13:23;5.55;;;2.72;;
75139;SDS011;63714;55.812;37.658;2023-05-13T03:15:49;6.05;;;2.80;;
75139;SDS011;63714;55.812;37.658;2023-05-13T03:18:14;7.15;;;3.00;;
75139;SDS011;63714;55.812;37.658;2023-05-13T03:20:40;4.85;;;2.50;;
75139;SDS011;63714;55.812;37.658;2023-05-13T03:23:06;7.18;;;2.50;;
75139;SDS011;63714;55.812;37.658;2023-05-13T03:25:31;6.50;;;2.90;;
75139;SDS011;63714;55.812;37.658;2023-05-13T03:27:57;6.63;;;2.60;;
75139;SDS011;63714;55.812;37.658;2023-05-13T03:30:23;5.80;;;2.60;;
75139;SDS011;63714;55.812;37.658;2023-05-13T03:32:49;6.13;;;2.80;;
75139;SDS011;63714;55.812;37.658;2023-05-13T03:35:17;6.28;;;2.60;;
75139;SDS011;63714;55.812;37.658;2023-05-13T03:37:42;5.05;;;2.63;;
75139;SDS011;63714;55.812;37.658;2023-05-13T03:40:08;5.57;;;3.00;;
75139;SDS011;63714;55.812;37.658;2023-05-13T03:42:34;6.15;;;2.95;;
75139;SDS011;63714;55.812;37.658;2023-05-13T03:50:03;5.15;;;2.60;;
75139;SDS011;63714;55.812;37.658;2023-05-13T03:52:29;7.50;;;2.90;;
75139;SDS011;63714;55.812;37.658;2023-05-13T03:54:55;6.22;;;2.83;;
75139;SDS011;63714;55.812;37.658;2023-05-13T03:57:21;6.60;;;2.85;;
75139;SDS011;63714;55.812;37.658;2023-05-13T03:59:47;8.30;;;2.40;;
75139;SDS011;63714;55.812;37.658;2023-05-13T04:02:13;5.72;;;2.80;;
75139;SDS011;63714;55.812;37.658;2023-05-13T04:04:38;6.13;;;2.60;;
75139;SDS011;63714;55.812;37.658;2023-05-13T04:07:04;6.90;;;2.78;;
75139;SDS011;63714;55.812;37.658;2023-05-13T04:09:30;7.18;;;3.00;;
75139;SDS011;63714;55.812;37.658;2023-05-13T04:11:55;5.82;;;2.50;;
75139;SDS011;63714;55.812;37.658;2023-05-13T04:14:21;3.47;;;2.30;;
75139;SDS011;63714;55.812;37.658;2023-05-13T04:16:47;3.47;;;2.60;;
75139;SDS011;63714;55.812;37.658;2023-05-13T04:19:13;5.78;;;2.50;;
75139;SDS011;63714;55.812;37.658;2023-05-13T04:21:38;6.07;;;2.35;;
75139;SDS011;63714;55.812;37.658;2023-05-13T04:24:04;5.40;;;2.50;;
75139;SDS011;63714;55.812;37.658;2023-05-13T04:26:31;7.13;;;2.42;;
75139;SDS011;63714;55.812;37.658;2023-05-13T04:28:58;4.00;;;2.50;;
75139;SDS011;63714;55.812;37.658;2023-05-13T04:31:23;3.95;;;2.30;;
75139;SDS011;63714;55.812;37.658;2023-05-13T04:33:49;4.82;;;2.40;;
75139;SDS011;63714;55.812;37.658;2023-05-13T04:36:15;8.57;;;2.78;;
75139;SDS011;63714;55.812;37.658;2023-05-13T04:38:41;7.68;;;2.70;;
75139;SDS011;63714;55.812;37.658;2023-05-13T04:41:06;3.40;;;2.20;;
75139;SDS011;63714;55.812;37.658;2023-05-13T04:43:32;5.57;;;2.97;;
75139;SDS011;63714;55.812;37.658;2023-05-13T04:45:57;3.70;;;2.30;;
75139;SDS011;63714;55.812;37.658;2023-05-13T04:48:23;5.25;;;2.40;;
75139;SDS011;63714;55.812;37.658;2023-05-13T04:50:52;6.85;;;2.53;;
75139;SDS011;63714;55.812;37.658;2023-05-13T04:53:17;7.57;;;2.60;;
75139;SDS011;63714;55.812;37.658;2023-05-13T04:55:45;6.95;;;2.38;;
75139;SDS011;63714;55.812;37.658;2023-05-13T04:58:12;5.88;;;2.28;;
75139;SDS011;63714;55.812;37.658;2023-05-13T05:00:38;5.28;;;2.72;;
75139;SDS011;63714;55.812;37.658;2023-05-13T05:03:03;6.50;;;2.65;;
75139;SDS011;63714;55.812;37.658;2023-05-13T05:05:29;6.47;;;2.60;;
75139;SDS011;63714;55.812;37.658;2023-05-13T05:07:55;4.10;;;2.13;;
75139;SDS011;63714;55.812;37.658;2023-05-13T05:10:20;8.15;;;2.50;;
75139;SDS011;63714;55.812;37.658;2023-05-13T05:12:46;7.57;;;2.72;;
75139;SDS011;63714;55.812;37.658;2023-05-13T05:15:12;4.15;;;2.60;;
75139;SDS011;63714;55.812;37.658;2023-05-13T05:17:41;7.72;;;2.92;;
75139;SDS011;63714;55.812;37.658;2023-05-13T05:20:08;5.78;;;2.58;;
75139;SDS011;63714;55.812;37.658;2023-05-13T05:22:35;3.28;;;2.13;;
75139;SDS011;63714;55.812;37.658;2023-05-13T05:27:28;5.88;;;2.28;;
75139;SDS011;63714;55.812;37.658;2023-05-13T05:29:53;3.03;;;2.28;;
75139;SDS011;63714;55.812;37.658;2023-05-13T05:32:19;7.43;;;2.70;;
75139;SDS011;63714;55.812;37.658;2023-05-13T05:34:44;6.07;;;3.25;;
75139;SDS011;63714;55.812;37.658;2023-05-13T05:37:10;4.70;;;2.67;;
75139;SDS011;63714;55.812;37.658;2023-05-13T05:39:36;7.22;;;3.33;;
75139;SDS011;63714;55.812;37.658;2023-05-13T05:42:02;3.20;;;2.42;;
75139;SDS011;63714;55.812;37.658;2023-05-13T05:44:28;5.28;;;2.88;;
75139;SDS011;63714;55.812;37.658;2023-05-13T05:46:54;5.40;;;2.85;;
75139;SDS011;63714;55.812;37.658;2023-05-13T05:49:19;3.95;;;2.60;;
75139;SDS011;63714;55.812;37.658;2023-05-13T05:51:45;6.80;;;2.63;;
75139;SDS011;63714;55.812;37.658;2023-05-13T05:54:11;6.97;;;2.80;;
75139;SDS011;63714;55.812;37.658;2023-05-13T05:56:36;10.48;;;3.42;;
75139;SDS011;63714;55.812;37.658;2023-05-13T05:59:02;8.02;;;3.30;;
75139;SDS011;63714;55.812;37.658;2023-05-13T06:01:28;5.28;;;2.90;;
75139;SDS011;63714;55.812;37.658;2023-05-13T06:03:58;5.05;;;2.75;;
75139;SDS011;63714;55.812;37.658;2023-05-13T06:06:24;6.72;;;3.35;;
75139;SDS011;63714;55.812;37.658;2023-05-13T06:08:50;6.18;;;3.03;;
75139;SDS011;63714;55.812;37.658;2023-05-13T06:11:15;6.70;;;3.35;;
75139;SDS011;63714;55.812;37.658;2023-05-13T06:13:41;6.35;;;3.05;;
75139;SDS011;63714;55.812;37.658;2023-05-13T06:18:33;8.15;;;3.25;;
75139;SDS011;63714;55.812;37.658;2023-05-13T06:20:59;5.15;;;3.30;;
75139;SDS011;63714;55.812;37.658;2023-05-13T06:23:24;6.18;;;2.85;;
75139;SDS011;63714;55.812;37.658;2023-05-13T06:25:50;6.68;;;2.67;;
75139;SDS011;63714;55.812;37.658;2023-05-13T06:28:16;8.82;;;2.83;;
75139;SDS011;63714;55.812;37.658;2023-05-13T06:30:42;8.40;;;2.42;;
75139;SDS011;63714;55.812;37.658;2023-05-13T06:33:08;5.78;;;2.33;;
75139;SDS011;63714;55.812;37.658;2023-05-13T06:35:36;22.83;;;3.30;;
75139;SDS011;63714;55.812;37.658;2023-05-13T06:38:01;5.65;;;2.20;;
75139;SDS011;63714;55.812;37.658;2023-05-13T06:40:27;5.40;;;2.35;;
75139;SDS011;63714;55.812;37.658;2023-05-13T06:42:53;6.65;;;2.70;;
75139;SDS011;63714;55.812;37.658;2023-05-13T06:45:19;7.82;;;2.63;;
75139;SDS011;63714;55.812;37.658;2023-05-13T06:47:50;9.38;;;2.78;;
75139;SDS011;63714;55.812;37.658;2023-05-13T06:50:17;4.50;;;2.55;;
75139;SDS011;63714;55.812;37.658;2023-05-13T06:52:43;7.88;;;2.10;;
75139;SDS011;63714;55.812;37.658;2023-05-13T06:55:09;6.50;;;2.55;;
75139;SDS011;63714;55.812;37.658;2023-05-13T06:57:35;4.38;;;2.30;;
75139;SDS011;63714;55.812;37.658;2023-05-13T07:00:01;4.63;;;2.22;;
75139;SDS011;63714;55.812;37.658;2023-05-13T07:02:33;3.90;;;2.53;;
75139;SDS011;63714;55.812;37.658;2023-05-13T07:04:59;7.75;;;2.78;;
75139;SDS011;63714;55.812;37.658;2023-05-13T07:07:25;9.50;;;2.92;;
75139;SDS011;63714;55.812;37.658;2023-05-13T07:09:50;6.80;;;2.63;;
75139;SDS011;63714;55.812;37.658;2023-05-13T07:12:16;6.30;;;2.95;;
75139;SDS011;63714;55.812;37.658;2023-05-13T07:14:42;6.75;;;3.22;;
75139;SDS011;63714;55.812;37.658;2023-05-13T07:17:09;6.30;;;2.95;;
75139;SDS011;63714;55.812;37.658;2023-05-13T07:19:35;7.45;;;2.90;;
75139;SDS011;63714;55.812;37.658;2023-05-13T07:22:00;5.45;;;2.72;;
75139;SDS011;63714;55.812;37.658;2023-05-13T07:24:26;5.05;;;2.70;;
75139;SDS011;63714;55.812;37.658;2023-05-13T07:26:52;4.60;;;3.03;;
75139;SDS011;63714;55.812;37.658;2023-05-13T07:29:18;7.63;;;3.63;;
75139;SDS011;63714;55.812;37.658;2023-05-13T07:31:44;5.88;;;3.83;;
75139;SDS011;63714;55.812;37.658;2023-05-13T07:34:11;9.30;;;3.53;;
75139;SDS011;63714;55.812;37.658;2023-05-13T07:36:37;5.60;;;3.13;;
75139;SDS011;63714;55.812;37.658;2023-05-13T07:39:02;5.63;;;3.10;;
75139;SDS011;63714;55.812;37.658;2023-05-13T07:41:28;6.75;;;3.33;;
75139;SDS011;63714;55.812;37.658;2023-05-13T07:43:54;5.88;;;2.90;;
75139;SDS011;63714;55.812;37.658;2023-05-13T07:46:19;4.55;;;3.08;;
75139;SDS011;63714;55.812;37.658;2023-05-13T07:48:45;5.60;;;3.30;;
75139;SDS011;63714;55.812;37.658;2023-05-13T07:51:10;8.57;;;2.78;;
75139;SDS011;63714;55.812;37.658;2023-05-13T07:53:36;6.25;;;3.03;;
75139;SDS011;63714;55.812;37.658;2023-05-13T07:56:02;4.60;;;2.75;;
75139;SDS011;63714;55.812;37.658;2023-05-13T07:58:28;8.18;;;3.40;;
75139;SDS011;63714;55.812;37.658;2023-05-13T08:03:19;7.68;;;3.17;;
75139;SDS011;63714;55.812;37.658;2023-05-13T08:05:45;7.90;;;3.63;;
75139;SDS011;63714;55.812;37.658;2023-05-13T08:08:12;8.52;;;3.40;;
75139;SDS011;63714;55.812;37.658;2023-05-13T08:10:37;4.53;;;3.30;;
75139;SDS011;63714;55.812;37.658;2023-05-13T08:13:03;6.78;;;3.05;;
75139;SDS011;63714;55.812;37.658;2023-05-13T08:15:29;9.82;;;2.92;;
75139;SDS011;63714;55.812;37.658;2023-05-13T08:17:54;6.75;;;3.22;;
75139;SDS011;63714;55.812;37.658;2023-05-13T08:20:20;5.55;;;3.22;;
75139;SDS011;63714;55.812;37.658;2023-05-13T08:22:50;4.95;;;3.08;;
75139;SDS011;63714;55.812;37.658;2023-05-13T08:25:16;9.60;;;3.72;;
75139;SDS011;63714;55.812;37.658;2023-05-13T08:27:42;5.68;;;3.45;;
75139;SDS011;63714;55.812;37.658;2023-05-13T08:32:34;6.78;;;3.38;;
75139;SDS011;63714;55.812;37.658;2023-05-13T08:34:59;4.65;;;3.45;;
75139;SDS011;63714;55.812;37.658;2023-05-13T08:37:25;7.85;;;4.50;;
75139;SDS011;63714;55.812;37.658;2023-05-13T08:39:51;6.15;;;3.95;;
75139;SDS011;63714;55.812;37.658;2023-05-13T08:42:17;6.70;;;2.75;;
75139;SDS011;63714;55.812;37.658;2023-05-13T08:44:45;5.25;;;3.17;;
75139;SDS011;63714;55.812;37.658;2023-05-13T08:47:31;11.82;;;3.83;;
75139;SDS011;63714;55.812;37.658;2023-05-13T08:50:13;6.95;;;3.08;;
75139;SDS011;63714;55.812;37.658;2023-05-13T08:52:40;6.05;;;3.47;;
75139;SDS011;63714;55.812;37.658;2023-05-13T08:55:07;9.18;;;3.35;;
75139;SDS011;63714;55.812;37.658;2023-05-13T08:57:33;5.65;;;3.53;;
75139;SDS011;63714;55.812;37.658;2023-05-13T08:59:58;6.75;;;3.33;;
75139;SDS011;63714;55.812;37.658;2023-05-13T09:02:24;9.32;;;3.65;;
75139;SDS011;63714;55.812;37.658;2023-05-13T09:04:51;8.82;;;2.88;;
75139;SDS011;63714;55.812;37.658;2023-05-13T09:07:18;7.32;;;3.28;;
75139;SDS011;63714;55.812;37.658;2023-05-13T09:09:44;7.38;;;2.92;;
75139;SDS011;63714;55.812;37.658;2023-05-13T09:12:10;4.90;;;2.60;;
75139;SDS011;63714;55.812;37.658;2023-05-13T09:14:36;4.38;;;2.80;;
75139;SDS011;63714;55.812;37.658;2023-05-13T09:17:03;7.18;;;2.78;;
75139;SDS011;63714;55.812;37.658;2023-05-13T09:19:29;5.70;;;2.88;;
75139;SDS011;63714;55.812;37.658;2023-05-13T09:21:55;5.18;;;3.13;;
75139;SDS011;63714;55.812;37.658;2023-05-13T09:26:48;8.23;;;3.30;;
75139;SDS011;63714;55.812;37.658;2023-05-13T09:29:16;6.80;;;2.95;;
75139;SDS011;63714;55.812;37.658;2023-05-13T09:31:55;6.03;;;2.47;;
75139;SDS011;63714;55.812;37.658;2023-05-13T09:34:30;6.18;;;2.65;;
75139;SDS011;63714;55.812;37.658;2023-05-13T09:37:04;8.88;;;3.83;;
75139;SDS011;63714;55.812;37.658;2023-05-13T09:39:32;7.90;;;3.25;;
75139;SDS011;63714;55.812;37.658;2023-05-13T09:42:02;5.22;;;3.30;;
75139;SDS011;63714;55.812;37.658;2023-05-13T09:44:28;5.43;;;2.85;;
75139;SDS011;63714;55.812;37.658;2023-05-13T09:46:54;5.10;;;3.28;;
75139;SDS011;63714;55.812;37.658;2023-05-13T09:49:25;7.82;;;3.00;;
75139;SDS011;63714;55.812;37.658;2023-05-13T09:51:51;10.05;;;3.22;;
75139;SDS011;63714;55.812;37.658;2023-05-13T09:54:16;10.45;;;3.22;;
75139;SDS011;63714;55.812;37.658;2023-05-13T09:56:42;8.98;;;3.42;;
75139;SDS011;63714;55.812;37.658;2023-05-13T09:59:08;8.38;;;2.83;;
75139;SDS011;63714;55.812;37.658;2023-05-13T10:01:34;3.72;;;2.58;;
75139;SDS011;63714;55.812;37.658;2023-05-13T10:04:03;4.53;;;2.65;;
75139;SDS011;63714;55.812;37.658;2023-05-13T10:06:30;7.80;;;3.05;;
75139;SDS011;63714;55.812;37.658;2023-05-13T10:08:56;9.00;;;3.28;;
75139;SDS011;63714;55.812;37.658;2023-05-13T10:11:24;8.10;;;3.97;;
75139;SDS011;63714;55.812;37.658;2023-05-13T10:13:58;5.38;;;2.42;;
75139;SDS011;63714;55.812;37.658;2023-05-13T10:16:25;4.72;;;2.55;;
75139;SDS011;63714;55.812;37.658;2023-05-13T10:19:04;3.13;;;2.85;;
75139;SDS011;63714;55.812;37.658;2023-05-13T10:21:30;4.57;;;2.33;;
75139;SDS011;63714;55.812;37.658;2023-05-13T10:23:57;5.20;;;2.45;;
75139;SDS011;63714;55.812;37.658;2023-05-13T10:26:23;4.95;;;2.30;;
75139;SDS011;63714;55.812;37.658;2023-05-13T10:28:50;7.30;;;3.10;;
75139;SDS011;63714;55.812;37.658;2023-05-13T10:31:16;5.75;;;3.05;;
75139;SDS011;63714;55.812;37.658;2023-05-13T10:33:42;8.68;;;3.13;;
75139;SDS011;63714;55.812;37.658;2023-05-13T10:36:12;4.45;;;2.58;;
75139;SDS011;63714;55.812;37.658;2023-05-13T10:44:39;4.80;;;2.63;;
75139;SDS011;63714;55.812;37.658;2023-05-13T10:47:07;7.97;;;2.90;;
75139;SDS011;63714;55.812;37.658;2023-05-13T10:49:33;5.90;;;2.42;;
75139;SDS011;63714;55.812;37.658;2023-05-13T10:52:04;5.55;;;2.60;;
75139;SDS011;63714;55.812;37.658;2023-05-13T10:54:39;6.45;;;2.40;;
75139;SDS011;63714;55.812;37.658;2023-05-13T10:57:07;6.30;;;2.35;;
75139;SDS011;63714;55.812;37.658;2023-05-13T10:59:33;4.68;;;2.50;;
75139;SDS011;63714;55.812;37.658;2023-05-13T11:02:02;11.85;;;2.35;;
75139;SDS011;63714;55.812;37.658;2023-05-13T11:05:00;9.63;;;2.33;;
75139;SDS011;63714;55.812;37.658;2023-05-13T11:07:29;3.40;;;2.40;;
75139;SDS011;63714;55.812;37.658;2023-05-13T11:09:54;8.05;;;2.55;;
75139;SDS011;63714;55.812;37.658;2023-05-13T11:12:20;5.30;;;2.22;;
75139;SDS011;63714;55.812;37.658;2023-05-13T11:14:46;8.15;;;2.33;;
75139;SDS011;63714;55.812;37.658;2023-05-13T11:17:15;5.25;;;2.28;;
75139;SDS011;63714;55.812;37.658;2023-05-13T11:19:46;4.22;;;2.28;;
75139;SDS011;63714;55.812;37.658;2023-05-13T11:22:15;3.58;;;2.67;;
75139;SDS011;63714;55.812;37.658;2023-05-13T11:24:43;3.85;;;1.90;;
75139;SDS011;63714;55.812;37.658;2023-05-13T11:27:14;6.70;;;2.60;;
75139;SDS011;63714;55.812;37.658;2023-05-13T11:35:00;3.83;;;2.53;;
75139;SDS011;63714;55.812;37.658;2023-05-13T11:37:29;6.97;;;2.95;;
75139;SDS011;63714;55.812;37.658;2023-05-13T11:39:56;8.95;;;2.55;;
75139;SDS011;63714;55.812;37.658;2023-05-13T11:42:23;4.65;;;2.78;;
75139;SDS011;63714;55.812;37.658;2023-05-13T11:44:50;4.30;;;2.28;;
75139;SDS011;63714;55.812;37.658;2023-05-13T11:47:23;5.45;;;2.45;;
75139;SDS011;63714;55.812;37.658;2023-05-13T11:49:49;7.55;;;2.65;;
75139;SDS011;63714;55.812;37.658;2023-05-13T11:52:16;5.80;;;1.90;;
75139;SDS011;63714;55.812;37.658;2023-05-13T11:54:47;7.18;;;2.63;;
75139;SDS011;63714;55.812;37.658;2023-05-13T11:57:22;6.30;;;3.03;;
75139;SDS011;63714;55.812;37.658;2023-05-13T11:59:55;6.55;;;2.78;;
75139;SDS011;63714;55.812;37.658;2023-05-13T12:02:22;7.47;;;2.42;;
75139;SDS011;63714;55.812;37.658;2023-05-13T12:04:50;7.13;;;2.20;;
75139;SDS011;63714;55.812;37.658;2023-05-13T12:07:23;7.10;;;2.50;;
75139;SDS011;63714;55.812;37.658;2023-05-13T12:09:52;2.90;;;2.25;;
75139;SDS011;63714;55.812;37.658;2023-05-13T12:12:20;4.68;;;2.35;;
75139;SDS011;63714;55.812;37.658;2023-05-13T12:14:47;7.22;;;2.33;;
75139;SDS011;63714;55.812;37.658;2023-05-13T12:17:17;4.80;;;1.88;;
75139;SDS011;63714;55.812;37.658;2023-05-13T12:22:32;6.35;;;2.22;;
75139;SDS011;63714;55.812;37.658;2023-05-13T12:25:01;7.75;;;2.00;;
75139;SDS011;63714;55.812;37.658;2023-05-13T12:27:51;4.90;;;1.98;;
75139;SDS011;63714;55.812;37.658;2023-05-13T12:30:17;5.47;;;2.38;;
75139;SDS011;63714;55.812;37.658;2023-05-13T12:32:43;7.68;;;2.17;;
75139;SDS011;63714;55.812;37.658;2023-05-13T12:35:12;5.78;;;2.22;;
75139;SDS011;63714;55.812;37.658;2023-05-13T12:37:41;4.47;;;2.10;;
75139;SDS011;63714;55.812;37.658;2023-05-13T12:40:10;5.85;;;1.80;;
75139;SDS011;63714;55.812;37.658;2023-05-13T12:42:36;4.72;;;1.83;;
75139;SDS011;63714;55.812;37.658;2023-05-13T12:45:02;4.88;;;2.15;;
75139;SDS011;63714;55.812;37.658;2023-05-13T12:47:45;7.40;;;2.55;;
75139;SDS011;63714;55.812;37.658;2023-05-13T12:50:14;3.20;;;2.00;;
75139;SDS011;63714;55.812;37.658;2023-05-13T12:52:40;4.25;;;2.03;;
75139;SDS011;63714;55.812;37.658;2023-05-13T12:55:06;6.22;;;2.40;;
75139;SDS011;63714;55.812;37.658;2023-05-13T12:57:32;10.73;;;2.67;;
75139;SDS011;63714;55.812;37.658;2023-05-13T12:59:57;5.07;;;2.15;;
75139;SDS011;63714;55.812;37.658;2023-05-13T13:02:23;4.45;;;1.98;;
75139;SDS011;63714;55.812;37.658;2023-05-13T13:04:49;6.93;;;2.30;;
75139;SDS011;63714;55.812;37.658;2023-05-13T13:07:15;2.92;;;1.90;;
75139;SDS011;63714;55.812;37.658;2023-05-13T13:09:41;6.53;;;2.20;;
75139;SDS011;63714;55.812;37.658;2023-05-13T13:12:06;4.75;;;2.40;;
75139;SDS011;63714;55.812;37.658;2023-05-13T13:14:32;7.15;;;2.75;;
75139;SDS011;63714;55.812;37.658;2023-05-13T13:16:58;4.65;;;2.03;;
75139;SDS011;63714;55.812;37.658;2023-05-13T13:19:24;7.20;;;2.10;;
75139;SDS011;63714;55.812;37.658;2023-05-13T13:21:49;3.05;;;2.30;;
75139;SDS011;63714;55.812;37.658;2023-05-13T13:24:15;6.57;;;2.38;;
75139;SDS011;63714;55.812;37.658;2023-05-13T13:26:41;3.97;;;1.85;;
75139;SDS011;63714;55.812;37.658;2023-05-13T13:29:06;10.02;;;2.28;;
75139;SDS011;63714;55.812;37.658;2023-05-13T13:31:32;4.78;;;2.05;;
75139;SDS011;63714;55.812;37.658;2023-05-13T13:33:57;4.15;;;2.15;;
75139;SDS011;63714;55.812;37.658;2023-05-13T13:36:28;6.40;;;2.50;;
75139;SDS011;63714;55.812;37.658;2023-05-13T13:38:54;6.10;;;2.35;;
75139;SDS011;63714;55.812;37.658;2023-05-13T13:41:20;8.05;;;2.83;;
75139;SDS011;63714;55.812;37.658;2023-05-13T13:43:50;5.38;;;2.20;;
75139;SDS011;63714;55.812;37.658;2023-05-13T13:46:16;6.22;;;2.58;;
75139;SDS011;63714;55.812;37.658;2023-05-13T13:48:41;5.25;;;2.30;;
75139;SDS011;63714;55.812;37.658;2023-05-13T13:51:07;7.68;;;2.50;;
75139;SDS011;63714;55.812;37.658;2023-05-13T13:53:33;7.80;;;2.35;;
75139;SDS011;63714;55.812;37.658;2023-05-13T13:55:58;5.60;;;2.95;;
75139;SDS011;63714;55.812;37.658;2023-05-13T13:58:24;5.72;;;2.47;;
75139;SDS011;63714;55.812;37.658;2023-05-13T14:00:50;5.70;;;2.40;;
75139;SDS011;63714;55.812;37.658;2023-05-13T14:03:16;6.40;;;2.60;;
75139;SDS011;63714;55.812;37.658;2023-05-13T14:05:42;6.07;;;2.70;;
75139;SDS011;63714;55.812;37.658;2023-05-13T14:08:08;4.05;;;1.98;;
75139;SDS011;63714;55.812;37.658;2023-05-13T14:10:34;4.32;;;1.90;;
75139;SDS011;63714;55.812;37.658;2023-05-13T14:13:00;6.40;;;2.03;;
75139;SDS011;63714;55.812;37.658;2023-05-13T14:15:26;5.25;;;2.08;;
75139;SDS011;63714;55.812;37.658;2023-05-13T14:17:54;7.93;;;2.42;;
75139;SDS011;63714;55.812;37.658;2023-05-13T14:20:20;4.90;;;1.92;;
75139;SDS011;63714;55.812;37.658;2023-05-13T14:22:46;3.97;;;1.98;;
75139;SDS011;63714;55.812;37.658;2023-05-13T14:25:12;6.20;;;2.05;;
75139;SDS011;63714;55.812;37.658;2023-05-13T14:27:38;8.27;;;3.88;;
75139;SDS011;63714;55.812;37.658;2023-05-13T14:30:08;6.03;;;2.00;;
75139;SDS011;63714;55.812;37.658;2023-05-13T14:32:34;5.28;;;1.90;;
75139;SDS011;63714;55.812;37.658;2023-05-13T14:35:00;4.40;;;2.13;;
75139;SDS011;63714;55.812;37.658;2023-05-13T14:37:25;5.25;;;2.13;;
75139;SDS011;63714;55.812;37.658;2023-05-13T14:39:51;3.78;;;1.90;;
75139;SDS011;63714;55.812;37.658;2023-05-13T14:42:17;6.32;;;2.08;;
75139;SDS011;63714;55.812;37.658;2023-05-13T14:44:43;5.07;;;1.98;;
75139;SDS011;63714;55.812;37.658;2023-05-13T14:47:09;5.43;;;2.47;;
75139;SDS011;63714;55.812;37.658;2023-05-13T14:49:35;6.97;;;2.58;;
75139;SDS011;63714;55.812;37.658;2023-05-13T14:52:00;9.50;;;2.30;;
75139;SDS011;63714;55.812;37.658;2023-05-13T14:54:26;6.35;;;2.00;;
75139;SDS011;63714;55.812;37.658;2023-05-13T14:56:52;6.07;;;2.20;;
75139;SDS011;63714;55.812;37.658;2023-05-13T14:59:17;3.50;;;2.25;;
75139;SDS011;63714;55.812;37.658;2023-05-13T15:01:43;7.45;;;2.30;;
75139;SDS011;63714;55.812;37.658;2023-05-13T15:04:09;6.43;;;2.25;;
75139;SDS011;63714;55.812;37.658;2023-05-13T15:06:35;9.00;;;2.38;;
75139;SDS011;63714;55.812;37.658;2023-05-13T15:09:02;9.13;;;2.17;;
75139;SDS011;63714;55.812;37.658;2023-05-13T15:11:28;4.00;;;2.03;;